AAL615 KAUS-KDFW
Flight info
| Callsign | AAL615 |
|---|---|
| Flight time | 0h 33m |
| Altitude | 24000 |
| Route | ELOEL3 FORSS GUTZZ SHMPP3 |
| Aircraft | B738/M-SDE2E3FGHIRWXY/LB1 |
Departure
| Time | 2026-05-07 02:24 |
|---|---|
| Airport | Austin Bergstrom International Airport (KAUS) |
Arrival
| Time | 2026-05-07 02:57 |
|---|---|
| Airport | Dallas Fort Worth International Airport (KDFW) |
| Time | Latitude | Longitude | Altitude | Speed | Heading |
|---|---|---|---|---|---|
| 2026-05-07 01:54 | 30.20156 | -97.66554 | 526 ft | 0 kts | 338° |
| 2026-05-07 02:10 | 30.20155 | -97.66554 | 508 ft | 1 kts | 338° |
| 2026-05-07 02:11 | 30.20133 | -97.66545 | 526 ft | 4 kts | 346° |
| 2026-05-07 02:11 | 30.20107 | -97.66540 | 526 ft | 4 kts | 5° |
| 2026-05-07 02:11 | 30.20084 | -97.66548 | 526 ft | 4 kts | 58° |
| 2026-05-07 02:11 | 30.20081 | -97.66555 | 526 ft | 1 kts | 76° |
| 2026-05-07 02:16 | 30.20081 | -97.66553 | 526 ft | 1 kts | 76° |
| 2026-05-07 02:16 | 30.20087 | -97.66528 | 526 ft | 6 kts | 76° |
| 2026-05-07 02:17 | 30.20091 | -97.66456 | 526 ft | 11 kts | 89° |
| 2026-05-07 02:17 | 30.20067 | -97.66392 | 526 ft | 8 kts | 171° |
| 2026-05-07 02:17 | 30.20009 | -97.66392 | 526 ft | 9 kts | 179° |
| 2026-05-07 02:17 | 30.19943 | -97.66388 | 526 ft | 10 kts | 166° |
| 2026-05-07 02:18 | 30.19913 | -97.66321 | 526 ft | 11 kts | 88° |
| 2026-05-07 02:18 | 30.19916 | -97.66207 | 526 ft | 16 kts | 88° |
| 2026-05-07 02:18 | 30.19919 | -97.66074 | 526 ft | 16 kts | 89° |
| 2026-05-07 02:18 | 30.19864 | -97.65988 | 526 ft | 16 kts | 178° |
| 2026-05-07 02:19 | 30.19754 | -97.65985 | 526 ft | 17 kts | 178° |
| 2026-05-07 02:19 | 30.19615 | -97.65982 | 526 ft | 24 kts | 179° |
| 2026-05-07 02:19 | 30.19437 | -97.65977 | 527 ft | 26 kts | 179° |
| 2026-05-07 02:19 | 30.19264 | -97.65972 | 527 ft | 24 kts | 178° |
| 2026-05-07 02:20 | 30.19103 | -97.65968 | 527 ft | 23 kts | 179° |
| 2026-05-07 02:20 | 30.18947 | -97.65964 | 527 ft | 22 kts | 179° |
| 2026-05-07 02:20 | 30.18791 | -97.65959 | 527 ft | 24 kts | 178° |
| 2026-05-07 02:20 | 30.18607 | -97.65955 | 526 ft | 28 kts | 179° |
| 2026-05-07 02:21 | 30.18413 | -97.65950 | 526 ft | 27 kts | 179° |
| 2026-05-07 02:21 | 30.18231 | -97.65945 | 526 ft | 25 kts | 178° |
| 2026-05-07 02:21 | 30.18061 | -97.65941 | 526 ft | 23 kts | 178° |
| 2026-05-07 02:21 | 30.17925 | -97.65917 | 526 ft | 16 kts | 125° |
| 2026-05-07 02:22 | 30.17917 | -97.65795 | 527 ft | 15 kts | 88° |
| 2026-05-07 02:22 | 30.17938 | -97.65727 | 526 ft | 7 kts | 12° |
| 2026-05-07 02:22 | 30.17977 | -97.65727 | 525 ft | 0 kts | 359° |
| 2026-05-07 02:23 | 30.17989 | -97.65728 | 525 ft | 6 kts | 359° |
| 2026-05-07 02:23 | 30.18188 | -97.65733 | 525 ft | 62 kts | 359° |
| 2026-05-07 02:23 | 30.18844 | -97.65750 | 527 ft | 124 kts | 358° |
| 2026-05-07 02:23 | 30.19860 | -97.65777 | 665 ft | 159 kts | 359° |
| 2026-05-07 02:24 | 30.20940 | -97.65813 | 1449 ft | 153 kts | 360° |
| 2026-05-07 02:24 | 30.21971 | -97.65862 | 2203 ft | 150 kts | 358° |
| 2026-05-07 02:24 | 30.23109 | -97.65950 | 2501 ft | 178 kts | 358° |
| 2026-05-07 02:24 | 30.24418 | -97.66055 | 2744 ft | 199 kts | 357° |
| 2026-05-07 02:25 | 30.25872 | -97.66149 | 2992 ft | 218 kts | 356° |
| 2026-05-07 02:25 | 30.27443 | -97.66396 | 3247 ft | 239 kts | 344° |
| 2026-05-07 02:25 | 30.29071 | -97.67095 | 3606 ft | 258 kts | 339° |
| 2026-05-07 02:25 | 30.30748 | -97.67851 | 4402 ft | 257 kts | 338° |
| 2026-05-07 02:26 | 30.32446 | -97.68600 | 5041 ft | 265 kts | 337° |
| 2026-05-07 02:26 | 30.34194 | -97.69333 | 5723 ft | 268 kts | 338° |
| 2026-05-07 02:26 | 30.35941 | -97.70072 | 6552 ft | 266 kts | 337° |
| 2026-05-07 02:26 | 30.37700 | -97.70810 | 7197 ft | 275 kts | 337° |
| 2026-05-07 02:27 | 30.39517 | -97.71568 | 7869 ft | 279 kts | 336° |
| 2026-05-07 02:27 | 30.41357 | -97.72335 | 8613 ft | 283 kts | 336° |
| 2026-05-07 02:27 | 30.43220 | -97.73109 | 9424 ft | 285 kts | 335° |
| 2026-05-07 02:27 | 30.45095 | -97.73888 | 10193 ft | 289 kts | 334° |
| 2026-05-07 02:28 | 30.47044 | -97.74702 | 10491 ft | 310 kts | 334° |
| 2026-05-07 02:28 | 30.49155 | -97.75586 | 10706 ft | 334 kts | 335° |
| 2026-05-07 02:28 | 30.51408 | -97.76527 | 10891 ft | 354 kts | 335° |
| 2026-05-07 02:28 | 30.53758 | -97.77501 | 11293 ft | 363 kts | 335° |
| 2026-05-07 02:29 | 30.56157 | -97.78491 | 11892 ft | 368 kts | 335° |
| 2026-05-07 02:29 | 30.58578 | -97.79491 | 12551 ft | 371 kts | 334° |
| 2026-05-07 02:29 | 30.61017 | -97.80501 | 13205 ft | 374 kts | 334° |
| 2026-05-07 02:29 | 30.63482 | -97.81524 | 13838 ft | 378 kts | 333° |
| 2026-05-07 02:30 | 30.65973 | -97.82560 | 14414 ft | 382 kts | 333° |
| 2026-05-07 02:30 | 30.68488 | -97.83606 | 14997 ft | 386 kts | 333° |
| 2026-05-07 02:30 | 30.71030 | -97.84665 | 15591 ft | 390 kts | 333° |
| 2026-05-07 02:30 | 30.73599 | -97.85736 | 16202 ft | 394 kts | 333° |
| 2026-05-07 02:31 | 30.76211 | -97.86779 | 16780 ft | 400 kts | 334° |
| 2026-05-07 02:31 | 30.78879 | -97.87766 | 17397 ft | 404 kts | 335° |
| 2026-05-07 02:31 | 30.81579 | -97.88745 | 17992 ft | 409 kts | 335° |
| 2026-05-07 02:31 | 30.84307 | -97.89742 | 18500 ft | 413 kts | 335° |
| 2026-05-07 02:32 | 30.87056 | -97.90760 | 19012 ft | 416 kts | 334° |
| 2026-05-07 02:32 | 30.89814 | -97.91790 | 19550 ft | 417 kts | 333° |
| 2026-05-07 02:32 | 30.92494 | -97.93042 | 20071 ft | 413 kts | 326° |
| 2026-05-07 02:32 | 30.95061 | -97.94548 | 20619 ft | 413 kts | 324° |
| 2026-05-07 02:33 | 30.97581 | -97.96089 | 21122 ft | 416 kts | 324° |
| 2026-05-07 02:33 | 31.00152 | -97.97660 | 21679 ft | 418 kts | 324° |
| 2026-05-07 02:33 | 31.02739 | -97.99217 | 22266 ft | 419 kts | 324° |
| 2026-05-07 02:33 | 31.05377 | -98.00788 | 22755 ft | 422 kts | 324° |
| 2026-05-07 02:34 | 31.07973 | -98.02322 | 23214 ft | 426 kts | 324° |
| 2026-05-07 02:34 | 31.10659 | -98.03904 | 23696 ft | 428 kts | 324° |
| 2026-05-07 02:34 | 31.13293 | -98.05457 | 24006 ft | 432 kts | 324° |
| 2026-05-07 02:34 | 31.16034 | -98.07058 | 24047 ft | 440 kts | 326° |
| 2026-05-07 02:35 | 31.18953 | -98.08346 | 24052 ft | 459 kts | 336° |
| 2026-05-07 02:35 | 31.22105 | -98.09185 | 24060 ft | 467 kts | 340° |
| 2026-05-07 02:35 | 31.25282 | -98.09929 | 24046 ft | 465 kts | 340° |
| 2026-05-07 02:35 | 31.28409 | -98.10660 | 24076 ft | 463 kts | 340° |
| 2026-05-07 02:36 | 31.31593 | -98.11434 | 24048 ft | 461 kts | 339° |
| 2026-05-07 02:36 | 31.34722 | -98.12224 | 24038 ft | 459 kts | 339° |
| 2026-05-07 02:36 | 31.37790 | -98.13010 | 24031 ft | 457 kts | 339° |
| 2026-05-07 02:36 | 31.40909 | -98.13754 | 24027 ft | 461 kts | 343° |
| 2026-05-07 02:37 | 31.44181 | -98.13702 | 24040 ft | 479 kts | 359° |
| 2026-05-07 02:37 | 31.47488 | -98.13129 | 24032 ft | 481 kts | 0° |
| 2026-05-07 02:37 | 31.50791 | -98.12538 | 24034 ft | 481 kts | 0° |
| 2026-05-07 02:37 | 31.54098 | -98.11981 | 24040 ft | 481 kts | 360° |
| 2026-05-07 02:38 | 31.57466 | -98.11455 | 24039 ft | 481 kts | 359° |
| 2026-05-07 02:38 | 31.60785 | -98.10959 | 24031 ft | 482 kts | 359° |
| 2026-05-07 02:38 | 31.64065 | -98.10431 | 24018 ft | 486 kts | 3° |
| 2026-05-07 02:38 | 31.67308 | -98.09113 | 24062 ft | 505 kts | 22° |
| 2026-05-07 02:39 | 31.70332 | -98.06997 | 24078 ft | 507 kts | 25° |
| 2026-05-07 02:39 | 31.73347 | -98.04821 | 24069 ft | 507 kts | 25° |
| 2026-05-07 02:39 | 31.76356 | -98.02680 | 24056 ft | 507 kts | 25° |
| 2026-05-07 02:39 | 31.79392 | -98.00567 | 24049 ft | 506 kts | 24° |
| 2026-05-07 02:40 | 31.82425 | -97.98485 | 24065 ft | 505 kts | 24° |
| 2026-05-07 02:40 | 31.84480 | -97.97080 | 24048 ft | 506 kts | 24° |
| 2026-05-07 02:40 | 31.87526 | -97.95000 | 24047 ft | 506 kts | 23° |
| 2026-05-07 02:40 | 31.90585 | -97.92956 | 24015 ft | 502 kts | 22° |
| 2026-05-07 02:41 | 31.93616 | -97.90959 | 23517 ft | 497 kts | 22° |
| 2026-05-07 02:41 | 31.96620 | -97.88991 | 22877 ft | 491 kts | 22° |
| 2026-05-07 02:41 | 31.99593 | -97.87040 | 22247 ft | 485 kts | 22° |
| 2026-05-07 02:41 | 32.02524 | -97.85111 | 21634 ft | 480 kts | 23° |
| 2026-05-07 02:42 | 32.05422 | -97.83197 | 21039 ft | 475 kts | 23° |
| 2026-05-07 02:42 | 32.08290 | -97.81300 | 20439 ft | 470 kts | 23° |
| 2026-05-07 02:42 | 32.11131 | -97.79417 | 19868 ft | 466 kts | 23° |
| 2026-05-07 02:42 | 32.13950 | -97.77548 | 19234 ft | 463 kts | 24° |
| 2026-05-07 02:43 | 32.16745 | -97.75693 | 18637 ft | 460 kts | 24° |
| 2026-05-07 02:43 | 32.19520 | -97.73840 | 18038 ft | 455 kts | 24° |
| 2026-05-07 02:43 | 32.22224 | -97.72030 | 17417 ft | 451 kts | 24° |
| 2026-05-07 02:43 | 32.24950 | -97.70256 | 16805 ft | 444 kts | 22° |
| 2026-05-07 02:44 | 32.27691 | -97.68633 | 16214 ft | 438 kts | 20° |
| 2026-05-07 02:44 | 32.30421 | -97.67074 | 15636 ft | 433 kts | 20° |
| 2026-05-07 02:44 | 32.33123 | -97.65517 | 15010 ft | 431 kts | 21° |
| 2026-05-07 02:44 | 32.35795 | -97.63949 | 14408 ft | 428 kts | 21° |
| 2026-05-07 02:45 | 32.38408 | -97.62312 | 13795 ft | 422 kts | 29° |
| 2026-05-07 02:45 | 32.40597 | -97.60002 | 13216 ft | 422 kts | 43° |
| 2026-05-07 02:45 | 32.42645 | -97.57524 | 12577 ft | 419 kts | 41° |
| 2026-05-07 02:45 | 32.44703 | -97.55126 | 12151 ft | 411 kts | 41° |
| 2026-05-07 02:46 | 32.46734 | -97.52809 | 11817 ft | 401 kts | 41° |
| 2026-05-07 02:46 | 32.48715 | -97.50556 | 11577 ft | 389 kts | 41° |
| 2026-05-07 02:46 | 32.50372 | -97.48073 | 11373 ft | 382 kts | 62° |
| 2026-05-07 02:46 | 32.51223 | -97.45152 | 11278 ft | 371 kts | 81° |
| 2026-05-07 02:47 | 32.51528 | -97.42168 | 11139 ft | 359 kts | 85° |
| 2026-05-07 02:47 | 32.51767 | -97.39243 | 10834 ft | 355 kts | 85° |
| 2026-05-07 02:47 | 32.52029 | -97.36357 | 10529 ft | 351 kts | 85° |
| 2026-05-07 02:47 | 32.52279 | -97.33499 | 10227 ft | 347 kts | 85° |
| 2026-05-07 02:48 | 32.52518 | -97.30675 | 9923 ft | 343 kts | 85° |
| 2026-05-07 02:48 | 32.52764 | -97.27879 | 9546 ft | 341 kts | 85° |
| 2026-05-07 02:48 | 32.53021 | -97.25084 | 9061 ft | 341 kts | 84° |
| 2026-05-07 02:48 | 32.53306 | -97.22304 | 8538 ft | 339 kts | 83° |
| 2026-05-07 02:49 | 32.53615 | -97.19543 | 8003 ft | 336 kts | 82° |
| 2026-05-07 02:49 | 32.53946 | -97.16815 | 7445 ft | 333 kts | 81° |
| 2026-05-07 02:49 | 32.54312 | -97.14116 | 6872 ft | 329 kts | 79° |
| 2026-05-07 02:49 | 32.54705 | -97.11460 | 6324 ft | 325 kts | 78° |
| 2026-05-07 02:50 | 32.55113 | -97.08851 | 5753 ft | 319 kts | 78° |
| 2026-05-07 02:50 | 32.55690 | -97.06349 | 5169 ft | 311 kts | 62° |
| 2026-05-07 02:50 | 32.56970 | -97.04368 | 4605 ft | 300 kts | 37° |
| 2026-05-07 02:50 | 32.58775 | -97.03286 | 4182 ft | 285 kts | 11° |
| 2026-05-07 02:51 | 32.60677 | -97.03186 | 4064 ft | 264 kts | 355° |
| 2026-05-07 02:51 | 32.62412 | -97.03579 | 3997 ft | 245 kts | 346° |
| 2026-05-07 02:51 | 32.63988 | -97.04096 | 3986 ft | 226 kts | 345° |
| 2026-05-07 02:51 | 32.65445 | -97.04593 | 3980 ft | 212 kts | 345° |
| 2026-05-07 02:52 | 32.66833 | -97.05074 | 4029 ft | 203 kts | 345° |
| 2026-05-07 02:52 | 32.68174 | -97.05515 | 4044 ft | 197 kts | 351° |
| 2026-05-07 02:52 | 32.69530 | -97.05528 | 4055 ft | 194 kts | 2° |
| 2026-05-07 02:52 | 32.70895 | -97.05537 | 3915 ft | 200 kts | 0° |
| 2026-05-07 02:53 | 32.72300 | -97.05555 | 3666 ft | 201 kts | 1° |
| 2026-05-07 02:53 | 32.73645 | -97.05557 | 3417 ft | 190 kts | 2° |
| 2026-05-07 02:53 | 32.74927 | -97.05552 | 3174 ft | 179 kts | 2° |
| 2026-05-07 02:53 | 32.76137 | -97.05546 | 2937 ft | 169 kts | 2° |
| 2026-05-07 02:54 | 32.77265 | -97.05540 | 2709 ft | 154 kts | 3° |
| 2026-05-07 02:54 | 32.78279 | -97.05535 | 2515 ft | 137 kts | 4° |
| 2026-05-07 02:54 | 32.79229 | -97.05529 | 2343 ft | 139 kts | 4° |
| 2026-05-07 02:54 | 32.80190 | -97.05523 | 2108 ft | 138 kts | 4° |
| 2026-05-07 02:55 | 32.81133 | -97.05519 | 1913 ft | 134 kts | 4° |
| 2026-05-07 02:55 | 32.82048 | -97.05513 | 1721 ft | 130 kts | 2° |
| 2026-05-07 02:55 | 32.82974 | -97.05508 | 1567 ft | 137 kts | 3° |
| 2026-05-07 02:55 | 32.83925 | -97.05503 | 1398 ft | 136 kts | 2° |
| 2026-05-07 02:56 | 32.84874 | -97.05499 | 1234 ft | 137 kts | 2° |
| 2026-05-07 02:56 | 32.85829 | -97.05493 | 1037 ft | 136 kts | 2° |
| 2026-05-07 02:56 | 32.86756 | -97.05491 | 830 ft | 134 kts | 2° |
| 2026-05-07 02:56 | 32.87692 | -97.05485 | 672 ft | 134 kts | 2° |
| 2026-05-07 02:57 | 32.88590 | -97.05477 | 598 ft | 118 kts | 1° |
| 2026-05-07 02:57 | 32.89253 | -97.05476 | 597 ft | 73 kts | 0° |
| 2026-05-07 02:57 | 32.89632 | -97.05474 | 597 ft | 46 kts | 0° |
| 2026-05-07 02:57 | 32.89810 | -97.05459 | 597 ft | 19 kts | 12° |
| 2026-05-07 02:58 | 32.89922 | -97.05411 | 597 ft | 14 kts | 25° |
| 2026-05-07 02:58 | 32.90001 | -97.05358 | 597 ft | 12 kts | 30° |
| 2026-05-07 02:58 | 32.90061 | -97.05314 | 597 ft | 7 kts | 32° |
| 2026-05-07 02:58 | 32.90099 | -97.05284 | 597 ft | 6 kts | 40° |
| 2026-05-07 02:59 | 32.90116 | -97.05229 | 597 ft | 9 kts | 87° |
| 2026-05-07 02:59 | 32.90117 | -97.05146 | 597 ft | 12 kts | 90° |
| 2026-05-07 02:59 | 32.90116 | -97.05036 | 597 ft | 14 kts | 90° |
| 2026-05-07 02:59 | 32.90116 | -97.04922 | 597 ft | 14 kts | 90° |
| 2026-05-07 03:00 | 32.90116 | -97.04812 | 597 ft | 13 kts | 89° |
| 2026-05-07 03:00 | 32.90078 | -97.04766 | 597 ft | 10 kts | 176° |
| 2026-05-07 03:00 | 32.89990 | -97.04766 | 597 ft | 17 kts | 180° |
| 2026-05-07 03:00 | 32.89860 | -97.04767 | 597 ft | 19 kts | 180° |
| 2026-05-07 03:01 | 32.89737 | -97.04768 | 597 ft | 17 kts | 180° |
| 2026-05-07 03:01 | 32.89655 | -97.04761 | 597 ft | 3 kts | 119° |
| 2026-05-07 03:01 | 32.89649 | -97.04725 | 597 ft | 6 kts | 97° |
| 2026-05-07 03:01 | 32.89631 | -97.04672 | 597 ft | 8 kts | 161° |
| 2026-05-07 03:02 | 32.89595 | -97.04639 | 597 ft | 7 kts | 97° |
| 2026-05-07 03:02 | 32.89593 | -97.04597 | 597 ft | 5 kts | 91° |
| 2026-05-07 03:02 | 32.89593 | -97.04570 | 597 ft | 3 kts | 90° |
| 2026-05-07 03:02 | 32.89593 | -97.04565 | 597 ft | 0 kts | 91° |